createdAt,value
2018-12-30T00:00:16.603Z,862.19
2018-12-30T00:01:16.542Z,862.18
2018-12-30T00:02:16.540Z,862.18
2018-12-30T00:03:16.572Z,862.16
2018-12-30T00:04:16.511Z,862.10
2018-12-30T00:05:16.706Z,862.10
2018-12-30T00:06:16.480Z,862.06
2018-12-30T00:07:16.472Z,862.01
2018-12-30T00:08:17.518Z,862.05
2018-12-30T00:09:16.490Z,862.07
2018-12-30T00:10:16.444Z,862.02
2018-12-30T00:11:16.431Z,862.00
2018-12-30T00:12:16.417Z,861.98
2018-12-30T00:13:16.417Z,862.00
2018-12-30T00:14:16.419Z,861.98
2018-12-30T00:15:16.438Z,861.98
2018-12-30T00:16:16.389Z,861.93
2018-12-30T00:17:16.364Z,861.92
2018-12-30T00:18:16.387Z,861.87
2018-12-30T00:19:16.361Z,861.87
2018-12-30T00:20:16.344Z,861.95
2018-12-30T00:21:16.378Z,861.96
2018-12-30T00:22:16.324Z,861.94
2018-12-30T00:23:16.333Z,861.89
2018-12-30T00:24:16.284Z,861.84
2018-12-30T00:25:16.839Z,861.81
2018-12-30T00:26:16.860Z,861.77
2018-12-30T00:27:16.301Z,861.82
2018-12-30T00:28:16.257Z,861.82
2018-12-30T00:29:16.230Z,861.81
2018-12-30T00:30:16.239Z,861.89
2018-12-30T00:31:16.215Z,861.84
2018-12-30T00:32:16.214Z,861.80
2018-12-30T00:33:16.244Z,861.77
2018-12-30T00:34:16.176Z,861.74
2018-12-30T00:35:16.191Z,861.75
2018-12-30T00:36:16.155Z,861.79
2018-12-30T00:37:16.150Z,861.75
2018-12-30T00:38:16.133Z,861.74
2018-12-30T00:39:16.169Z,861.75
2018-12-30T00:40:16.137Z,861.76
2018-12-30T00:41:16.111Z,861.82
2018-12-30T00:42:16.103Z,861.77
2018-12-30T00:43:16.081Z,861.77
2018-12-30T00:44:16.085Z,861.72
2018-12-30T00:45:16.153Z,861.71
2018-12-30T00:46:16.098Z,861.68
2018-12-30T00:47:16.039Z,861.69
2018-12-30T00:48:16.031Z,861.69
2018-12-30T00:49:16.075Z,861.70
2018-12-30T00:50:16.031Z,861.68
2018-12-30T00:51:17.087Z,861.67
2018-12-30T00:52:15.992Z,861.64
2018-12-30T00:53:15.975Z,861.65
2018-12-30T00:54:15.972Z,861.62
2018-12-30T00:55:16.011Z,861.60
2018-12-30T00:56:15.945Z,861.61
2018-12-30T00:57:15.939Z,861.57
2018-12-30T00:58:15.923Z,861.58
2018-12-30T00:59:15.950Z,861.59
2018-12-30T01:00:15.910Z,861.59
2018-12-30T01:01:15.901Z,861.50
2018-12-30T01:02:15.956Z,861.50
2018-12-30T01:03:15.879Z,861.49
2018-12-30T01:04:15.908Z,861.48
2018-12-30T01:05:15.849Z,861.51
2018-12-30T01:06:15.842Z,861.53
2018-12-30T01:07:19.066Z,861.56
2018-12-30T01:08:15.822Z,861.54
2018-12-30T01:09:15.829Z,861.52
2018-12-30T01:10:15.863Z,861.50
2018-12-30T01:11:15.786Z,861.50
2018-12-30T01:12:15.789Z,861.47
2018-12-30T01:13:15.785Z,861.47
2018-12-30T01:14:15.754Z,861.56
2018-12-30T01:15:15.760Z,861.54
2018-12-30T01:16:15.776Z,861.49
2018-12-30T01:17:15.729Z,861.49
2018-12-30T01:18:15.712Z,861.45
2018-12-30T01:19:15.711Z,861.46
2018-12-30T01:20:15.690Z,861.45
2018-12-30T01:21:15.681Z,861.41
2018-12-30T01:22:15.712Z,861.53
2018-12-30T01:23:15.680Z,861.44
2018-12-30T01:24:15.654Z,861.40
2018-12-30T01:25:15.656Z,861.43
2018-12-30T01:26:15.635Z,861.37
2018-12-30T01:27:15.616Z,861.37
2018-12-30T01:28:15.665Z,861.34
2018-12-30T01:29:15.601Z,861.36
2018-12-30T01:30:15.621Z,861.30
2018-12-30T01:31:15.571Z,861.35
2018-12-30T01:32:15.574Z,861.36
2018-12-30T01:33:15.547Z,861.43
2018-12-30T01:34:15.543Z,861.45
2018-12-30T01:35:15.537Z,861.48
2018-12-30T01:36:15.558Z,861.52
2018-12-30T01:37:15.505Z,861.49
2018-12-30T01:38:15.493Z,861.48
2018-12-30T01:39:15.519Z,861.53
2018-12-30T01:40:15.526Z,861.50
2018-12-30T01:41:15.488Z,861.54
2018-12-30T01:42:15.623Z,861.54
2018-12-30T01:43:15.456Z,861.51
2018-12-30T01:44:15.446Z,861.53
2018-12-30T01:45:15.438Z,861.55
2018-12-30T01:46:15.458Z,861.62
2018-12-30T01:47:15.415Z,861.55
2018-12-30T01:48:15.397Z,861.55
2018-12-30T01:49:15.380Z,861.46
2018-12-30T01:50:15.407Z,861.45
2018-12-30T01:51:15.378Z,861.50
2018-12-30T01:52:15.415Z,861.50
2018-12-30T01:53:15.359Z,861.53
2018-12-30T01:54:15.337Z,861.55
2018-12-30T01:55:15.363Z,861.53
2018-12-30T01:56:15.306Z,861.49
2018-12-30T01:57:15.315Z,861.48
2018-12-30T01:58:15.333Z,861.48
2018-12-30T01:59:15.287Z,861.49
2018-12-30T02:00:15.280Z,861.54
2018-12-30T02:01:15.266Z,861.50
2018-12-30T02:02:15.265Z,861.46
2018-12-30T02:03:15.235Z,861.46
2018-12-30T02:04:15.258Z,861.41
2018-12-30T02:05:15.231Z,861.36
2018-12-30T02:06:15.198Z,861.38
2018-12-30T02:07:15.187Z,861.34
2018-12-30T02:08:15.186Z,861.34
2018-12-30T02:09:15.177Z,861.34
2018-12-30T02:10:15.223Z,861.24
2018-12-30T02:11:15.176Z,861.22
2018-12-30T02:12:15.131Z,861.25
2018-12-30T02:13:15.121Z,861.32
2018-12-30T02:14:15.118Z,861.33
2018-12-30T02:15:15.126Z,861.27
2018-12-30T02:16:15.145Z,861.26
2018-12-30T02:17:15.115Z,861.25
2018-12-30T02:18:15.086Z,861.22
2018-12-30T02:19:15.060Z,861.26
2018-12-30T02:20:15.050Z,861.25
2018-12-30T02:21:15.044Z,861.24
2018-12-30T02:22:15.080Z,861.22
2018-12-30T02:23:15.032Z,861.22
2018-12-30T02:24:15.017Z,861.20
2018-12-30T02:25:15.001Z,861.24
2018-12-30T02:26:15.023Z,861.18
2018-12-30T02:27:14.988Z,861.15
2018-12-30T02:28:15.005Z,861.16
2018-12-30T02:29:14.952Z,861.13
2018-12-30T02:30:14.939Z,861.16
2018-12-30T02:31:14.936Z,861.20
2018-12-30T02:32:14.931Z,861.17
2018-12-30T02:33:14.948Z,861.17
2018-12-30T02:34:14.953Z,861.21
2018-12-30T02:35:14.918Z,861.24
2018-12-30T02:36:14.892Z,861.23
2018-12-30T02:37:14.872Z,861.23
2018-12-30T02:38:14.858Z,861.17
2018-12-30T02:39:14.884Z,861.18
2018-12-30T02:40:14.872Z,861.13
2018-12-30T02:41:14.825Z,861.23
2018-12-30T02:42:14.848Z,861.19
2018-12-30T02:43:14.813Z,861.15
2018-12-30T02:44:14.850Z,861.09
2018-12-30T02:45:14.827Z,861.13
2018-12-30T02:46:14.787Z,861.17
2018-12-30T02:47:14.913Z,861.18
2018-12-30T02:48:14.748Z,861.21
2018-12-30T02:49:14.744Z,861.25
2018-12-30T02:50:14.796Z,861.29
2018-12-30T02:51:14.752Z,861.33
2018-12-30T02:52:14.731Z,861.34
2018-12-30T02:53:14.702Z,861.40
2018-12-30T02:54:14.734Z,861.39
2018-12-30T02:55:14.686Z,861.39
2018-12-30T02:56:14.672Z,861.38
2018-12-30T02:57:14.660Z,861.36
2018-12-30T02:58:14.660Z,861.34
2018-12-30T02:59:14.678Z,861.33
2018-12-30T03:00:14.784Z,861.31
2018-12-30T03:01:14.615Z,861.28
2018-12-30T03:02:14.606Z,861.28
2018-12-30T03:03:14.594Z,861.30
2018-12-30T03:04:14.588Z,861.29
2018-12-30T03:05:14.626Z,861.20
2018-12-30T03:06:14.564Z,861.17
2018-12-30T03:07:14.548Z,861.25
2018-12-30T03:08:14.570Z,861.21
2018-12-30T03:09:14.541Z,861.19
2018-12-30T03:10:14.565Z,861.16
2018-12-30T03:11:14.505Z,861.15
2018-12-30T03:12:14.515Z,861.12
2018-12-30T03:13:14.683Z,861.12
2018-12-30T03:14:14.480Z,861.04
2018-12-30T03:15:14.474Z,861.09
2018-12-30T03:16:14.495Z,861.09
2018-12-30T03:17:14.443Z,861.12
2018-12-30T03:18:14.482Z,861.16
2018-12-30T03:19:14.430Z,861.16
2018-12-30T03:20:14.424Z,861.13
2018-12-30T03:21:14.407Z,861.09
2018-12-30T03:22:14.399Z,861.01
2018-12-30T03:23:14.413Z,860.92
2018-12-30T03:24:14.425Z,860.86
2018-12-30T03:25:14.353Z,860.87
2018-12-30T03:26:14.355Z,860.93
2018-12-30T03:27:14.365Z,860.95
2018-12-30T03:28:14.332Z,860.98
2018-12-30T03:29:14.340Z,861.03
2018-12-30T03:30:14.357Z,861.04
2018-12-30T03:31:14.295Z,861.04
2018-12-30T03:32:14.313Z,860.97
2018-12-30T03:33:14.288Z,860.98
2018-12-30T03:34:14.282Z,860.97
2018-12-30T03:35:14.296Z,861.04
2018-12-30T03:36:14.246Z,861.03
2018-12-30T03:37:14.228Z,861.00
2018-12-30T03:38:14.224Z,861.02
2018-12-30T03:39:14.226Z,861.01
2018-12-30T03:40:14.228Z,861.02
2018-12-30T03:41:14.248Z,860.97
2018-12-30T03:42:14.171Z,861.04
2018-12-30T03:43:14.160Z,861.09
2018-12-30T03:44:14.178Z,861.06
2018-12-30T03:45:14.151Z,861.02
2018-12-30T03:46:14.165Z,861.03
2018-12-30T03:47:14.170Z,861.07
2018-12-30T03:48:14.118Z,861.15
2018-12-30T03:49:14.109Z,861.23
2018-12-30T03:50:14.106Z,861.26
2018-12-30T03:51:14.084Z,861.17
2018-12-30T03:52:14.098Z,861.14
2018-12-30T03:53:14.098Z,861.06
2018-12-30T03:54:14.064Z,861.03
2018-12-30T03:55:14.050Z,861.03
2018-12-30T03:56:14.038Z,861.05
2018-12-30T03:57:14.040Z,861.13
2018-12-30T03:58:14.017Z,861.11
2018-12-30T03:59:14.038Z,861.15
2018-12-30T04:00:14.030Z,861.18
2018-12-30T04:01:13.996Z,861.13
2018-12-30T04:02:13.962Z,861.14
2018-12-30T04:03:13.952Z,861.16
2018-12-30T04:04:13.950Z,861.14
2018-12-30T04:05:14.101Z,861.08
2018-12-30T04:06:13.927Z,861.15
2018-12-30T04:07:13.909Z,861.13
2018-12-30T04:08:13.922Z,861.17
2018-12-30T04:09:13.893Z,861.15
2018-12-30T04:10:13.877Z,861.21
2018-12-30T04:11:13.917Z,861.31
2018-12-30T04:12:13.845Z,861.28
2018-12-30T04:13:13.862Z,861.24
2018-12-30T04:14:13.843Z,861.23
2018-12-30T04:15:13.818Z,861.21
2018-12-30T04:16:13.825Z,861.15
2018-12-30T04:17:13.859Z,861.13
2018-12-30T04:18:13.797Z,861.14
2018-12-30T04:19:13.788Z,861.18
2018-12-30T04:20:13.808Z,861.19
2018-12-30T04:21:13.789Z,861.28
2018-12-30T04:22:16.990Z,861.25
2018-12-30T04:23:13.738Z,861.21
2018-12-30T04:24:13.737Z,861.10
2018-12-30T04:25:13.712Z,861.17
2018-12-30T04:26:13.758Z,861.13
2018-12-30T04:27:13.712Z,861.11
2018-12-30T04:28:13.715Z,861.11
2018-12-30T04:29:13.677Z,861.07
2018-12-30T04:30:13.656Z,861.10
2018-12-30T04:31:13.648Z,861.14
2018-12-30T04:32:13.683Z,861.14
2018-12-30T04:33:13.655Z,861.09
2018-12-30T04:34:13.625Z,861.11
2018-12-30T04:35:13.609Z,861.13
2018-12-30T04:36:13.616Z,861.12
2018-12-30T04:37:13.596Z,861.08
2018-12-30T04:38:13.621Z,861.09
2018-12-30T04:39:13.577Z,861.07
2018-12-30T04:40:13.559Z,861.07
2018-12-30T04:41:13.541Z,861.01
2018-12-30T04:42:13.612Z,861.02
2018-12-30T04:43:13.532Z,861.01
2018-12-30T04:44:13.504Z,861.07
2018-12-30T04:45:13.527Z,861.11
2018-12-30T04:46:13.496Z,861.02
2018-12-30T04:47:13.488Z,861.03
2018-12-30T04:48:13.510Z,861.12
2018-12-30T04:49:13.474Z,861.17
2018-12-30T04:50:13.455Z,861.17
2018-12-30T04:51:13.428Z,861.14
2018-12-30T04:52:13.438Z,861.04
2018-12-30T04:53:13.423Z,861.00
2018-12-30T04:54:13.466Z,861.13
2018-12-30T04:55:13.384Z,861.17
2018-12-30T04:56:13.371Z,861.08
2018-12-30T04:57:13.406Z,861.07
2018-12-30T04:58:13.365Z,861.07
2018-12-30T04:59:13.380Z,861.15
2018-12-30T05:00:13.348Z,861.20
2018-12-30T05:01:13.352Z,861.19
2018-12-30T05:02:13.331Z,861.25
2018-12-30T05:03:13.298Z,861.26
2018-12-30T05:04:13.295Z,861.22
2018-12-30T05:05:13.323Z,861.23
2018-12-30T05:06:13.280Z,861.28
2018-12-30T05:07:13.259Z,861.27
2018-12-30T05:08:13.260Z,861.27
2018-12-30T05:09:13.295Z,861.29
2018-12-30T05:10:13.255Z,861.28
2018-12-30T05:11:13.217Z,861.25
2018-12-30T05:12:13.217Z,861.17
2018-12-30T05:13:13.198Z,861.16
2018-12-30T05:14:13.182Z,861.16
2018-12-30T05:15:13.214Z,861.18
2018-12-30T05:16:13.164Z,861.24
2018-12-30T05:17:13.174Z,861.24
2018-12-30T05:18:13.150Z,861.19
2018-12-30T05:19:13.153Z,861.12
2018-12-30T05:20:13.138Z,861.11
2018-12-30T05:21:13.162Z,861.16
2018-12-30T05:22:13.096Z,861.28
2018-12-30T05:23:13.127Z,861.34
2018-12-30T05:24:13.112Z,861.39
2018-12-30T05:25:13.069Z,861.24
2018-12-30T05:26:13.068Z,861.24
2018-12-30T05:27:13.136Z,861.26
2018-12-30T05:28:13.038Z,861.18
2018-12-30T05:29:13.027Z,861.07
2018-12-30T05:30:13.013Z,861.09
2018-12-30T05:31:13.015Z,861.20
2018-12-30T05:32:13.073Z,861.30
2018-12-30T05:33:12.979Z,861.25
2018-12-30T05:34:12.992Z,861.31
2018-12-30T05:35:12.967Z,861.37
2018-12-30T05:36:12.969Z,861.37
2018-12-30T05:37:12.941Z,861.39
2018-12-30T05:38:12.972Z,861.37
2018-12-30T05:39:12.932Z,861.36
2018-12-30T05:40:12.913Z,861.40
2018-12-30T05:41:12.891Z,861.47
2018-12-30T05:42:12.901Z,861.45
2018-12-30T05:43:12.880Z,861.45
2018-12-30T05:44:12.918Z,861.34
2018-12-30T05:45:12.865Z,861.32
2018-12-30T05:46:12.848Z,861.34
2018-12-30T05:47:12.845Z,861.48
2018-12-30T05:48:12.866Z,861.60
2018-12-30T05:49:12.864Z,861.61
2018-12-30T05:50:12.800Z,861.59
2018-12-30T05:51:12.801Z,861.59
2018-12-30T05:52:12.782Z,861.56
2018-12-30T05:53:12.802Z,861.57
2018-12-30T05:54:12.797Z,861.60
2018-12-30T05:55:12.761Z,861.55
2018-12-30T05:56:12.742Z,861.59
2018-12-30T05:57:12.747Z,861.66
2018-12-30T05:58:12.731Z,861.73
2018-12-30T05:59:12.768Z,861.66
2018-12-30T06:00:12.700Z,861.68
2018-12-30T06:01:12.709Z,861.66
2018-12-30T06:02:12.677Z,861.83
2018-12-30T06:03:12.663Z,861.82
2018-12-30T06:04:12.716Z,861.80
2018-12-30T06:05:12.640Z,861.74
2018-12-30T06:06:12.634Z,861.70
2018-12-30T06:07:12.623Z,861.83
2018-12-30T06:08:12.617Z,861.85
2018-12-30T06:09:12.608Z,861.86
2018-12-30T06:10:12.649Z,861.93
2018-12-30T06:11:12.586Z,861.90
2018-12-30T06:12:12.570Z,861.89
2018-12-30T06:13:12.562Z,861.89
2018-12-30T06:14:12.566Z,861.89
2018-12-30T06:15:12.587Z,861.88
2018-12-30T06:16:12.527Z,861.86
2018-12-30T06:17:12.540Z,861.89
2018-12-30T06:18:12.508Z,861.93
2018-12-30T06:19:12.499Z,861.97
2018-12-30T06:20:12.490Z,861.91
2018-12-30T06:21:12.517Z,861.92
2018-12-30T06:22:12.486Z,861.94
2018-12-30T06:23:12.459Z,861.93
2018-12-30T06:24:12.443Z,861.90
2018-12-30T06:25:12.438Z,861.97
2018-12-30T06:26:12.427Z,861.99
2018-12-30T06:27:12.456Z,862.00
2018-12-30T06:28:12.408Z,862.06
2018-12-30T06:29:12.395Z,862.07
2018-12-30T06:30:12.384Z,862.02
2018-12-30T06:31:12.374Z,862.00
2018-12-30T06:32:12.366Z,862.00
2018-12-30T06:33:12.383Z,862.02
2018-12-30T06:34:12.363Z,862.09
2018-12-30T06:35:12.378Z,862.08
2018-12-30T06:36:12.317Z,862.18
2018-12-30T06:37:12.307Z,862.17
2018-12-30T06:38:12.295Z,862.19
2018-12-30T06:39:12.291Z,862.18
2018-12-30T06:40:12.288Z,862.17
2018-12-30T06:41:12.307Z,862.23
2018-12-30T06:42:12.282Z,862.24
2018-12-30T06:43:12.250Z,862.24
2018-12-30T06:44:12.236Z,862.30
2018-12-30T06:45:12.233Z,862.36
2018-12-30T06:46:12.213Z,862.31
2018-12-30T06:47:12.245Z,862.30
2018-12-30T06:48:12.221Z,862.23
2018-12-30T06:49:12.185Z,862.25
2018-12-30T06:50:12.172Z,862.25
2018-12-30T06:51:12.166Z,862.25
2018-12-30T06:52:12.154Z,862.24
2018-12-30T06:53:12.199Z,862.23
2018-12-30T06:54:12.134Z,862.27
2018-12-30T06:55:12.132Z,862.30
2018-12-30T06:56:12.110Z,862.34
2018-12-30T06:57:12.101Z,862.37
2018-12-30T06:58:12.088Z,862.39
2018-12-30T06:59:12.125Z,862.43
2018-12-30T07:00:12.080Z,862.42
2018-12-30T07:01:12.054Z,862.38
2018-12-30T07:02:12.074Z,862.34
2018-12-30T07:03:12.034Z,862.38
2018-12-30T07:04:12.024Z,862.40
2018-12-30T07:05:12.067Z,862.39
2018-12-30T07:06:11.997Z,862.39
2018-12-30T07:07:25.601Z,862.43
2018-12-30T07:08:12.977Z,862.47
2018-12-30T07:09:11.977Z,862.55
2018-12-30T07:10:11.985Z,862.53
2018-12-30T07:11:12.005Z,862.55
2018-12-30T07:12:11.933Z,862.50
2018-12-30T07:13:11.923Z,862.54
2018-12-30T07:14:11.923Z,862.53
2018-12-30T07:15:11.901Z,862.59
2018-12-30T07:16:11.896Z,862.56
2018-12-30T07:17:11.945Z,862.58
2018-12-30T07:18:11.877Z,862.47
2018-12-30T07:19:11.862Z,862.49
2018-12-30T07:20:11.859Z,862.53
2018-12-30T07:21:11.857Z,862.57
2018-12-30T07:22:11.832Z,862.66
2018-12-30T07:23:11.856Z,862.65
2018-12-30T07:24:11.811Z,862.62
2018-12-30T07:25:11.794Z,862.60
2018-12-30T07:26:11.808Z,862.65
2018-12-30T07:27:11.789Z,862.70
2018-12-30T07:28:11.763Z,862.80
2018-12-30T07:29:11.808Z,862.79
2018-12-30T07:30:11.755Z,862.80
2018-12-30T07:31:11.734Z,862.83
2018-12-30T07:32:11.730Z,862.82
2018-12-30T07:33:11.711Z,862.81
2018-12-30T07:34:11.707Z,862.85
2018-12-30T07:35:11.738Z,862.79
2018-12-30T07:36:11.677Z,862.82
2018-12-30T07:37:11.680Z,862.93
2018-12-30T07:38:11.656Z,862.96
2018-12-30T07:39:11.645Z,862.99
2018-12-30T07:40:11.645Z,862.97
2018-12-30T07:41:11.667Z,862.97
2018-12-30T07:42:11.622Z,862.88
2018-12-30T07:43:11.605Z,862.83
2018-12-30T07:44:11.746Z,862.88
2018-12-30T07:45:11.589Z,862.89
2018-12-30T07:46:11.576Z,862.84
2018-12-30T07:47:11.605Z,862.94
2018-12-30T07:48:11.574Z,862.94
2018-12-30T07:49:11.536Z,862.96
2018-12-30T07:50:11.530Z,862.94
2018-12-30T07:51:11.532Z,862.97
2018-12-30T07:52:11.507Z,862.96
2018-12-30T07:53:13.921Z,862.93
2018-12-30T07:54:11.490Z,862.87
2018-12-30T07:55:11.481Z,862.86
2018-12-30T07:56:11.481Z,862.92
2018-12-30T07:57:11.490Z,862.90
2018-12-30T07:58:11.452Z,862.87
2018-12-30T07:59:11.484Z,862.90
2018-12-30T08:00:11.491Z,862.94
2018-12-30T08:01:11.448Z,862.96
2018-12-30T08:02:11.403Z,862.98
2018-12-30T08:03:11.392Z,863.00
2018-12-30T08:04:11.400Z,863.08
2018-12-30T08:05:11.381Z,863.13
2018-12-30T08:06:11.414Z,863.10
2018-12-30T08:07:11.375Z,863.12
2018-12-30T08:08:11.340Z,863.07
2018-12-30T08:09:11.397Z,863.08
2018-12-30T08:10:11.351Z,863.07
2018-12-30T08:11:11.313Z,863.08
2018-12-30T08:12:11.366Z,863.09
2018-12-30T08:13:11.286Z,863.09
2018-12-30T08:14:11.275Z,863.08
2018-12-30T08:15:11.336Z,863.15
2018-12-30T08:16:11.252Z,863.14
2018-12-30T08:17:11.243Z,863.15
2018-12-30T08:18:11.258Z,863.25
2018-12-30T08:19:11.224Z,863.27
2018-12-30T08:20:11.218Z,863.28
2018-12-30T08:21:11.268Z,863.27
2018-12-30T08:22:11.190Z,863.24
2018-12-30T08:23:11.187Z,863.23
2018-12-30T08:24:11.184Z,863.29
2018-12-30T08:25:11.191Z,863.33
2018-12-30T08:26:11.311Z,863.37
2018-12-30T08:27:11.182Z,863.29
2018-12-30T08:28:11.155Z,863.29
2018-12-30T08:29:11.330Z,863.27
2018-12-30T08:30:11.204Z,863.30
2018-12-30T08:31:11.750Z,863.28
2018-12-30T08:32:11.100Z,863.36
2018-12-30T08:33:11.089Z,863.43
2018-12-30T08:34:11.096Z,863.49
2018-12-30T08:35:11.060Z,863.49
2018-12-30T08:36:11.114Z,863.48
2018-12-30T08:37:11.111Z,863.47
2018-12-30T08:38:11.019Z,863.50
2018-12-30T08:39:11.031Z,863.48
2018-12-30T08:40:11.080Z,863.46
2018-12-30T08:41:11.045Z,863.43
2018-12-30T08:42:10.987Z,863.51
2018-12-30T08:43:10.979Z,863.54
2018-12-30T08:44:10.984Z,863.58
2018-12-30T08:45:10.989Z,863.67
2018-12-30T08:46:10.941Z,863.65
2018-12-30T08:47:10.985Z,863.55
2018-12-30T08:48:10.965Z,863.52
2018-12-30T08:49:10.905Z,863.59
2018-12-30T08:50:10.895Z,863.55
2018-12-30T08:51:10.896Z,863.62
2018-12-30T08:52:10.879Z,863.58
2018-12-30T08:53:10.925Z,863.56
2018-12-30T08:54:10.863Z,863.59
2018-12-30T08:55:10.839Z,863.64
2018-12-30T08:56:10.875Z,863.67
2018-12-30T08:57:10.818Z,863.68
2018-12-30T08:58:11.665Z,863.74
2018-12-30T08:59:11.212Z,863.73
2018-12-30T09:00:10.808Z,863.79
2018-12-30T09:01:10.769Z,863.82
2018-12-30T09:02:11.769Z,863.84
2018-12-30T09:03:11.797Z,863.80
2018-12-30T09:04:11.161Z,863.84
2018-12-30T09:05:10.805Z,863.91
2018-12-30T09:06:10.761Z,863.86
2018-12-30T09:07:10.704Z,863.89
2018-12-30T09:08:10.707Z,863.84
2018-12-30T09:09:10.698Z,863.86
2018-12-30T09:10:10.680Z,863.91
2018-12-30T09:11:10.781Z,863.92
2018-12-30T09:12:10.651Z,863.93
2018-12-30T09:13:11.655Z,863.97
2018-12-30T09:14:10.641Z,864.02
2018-12-30T09:15:10.641Z,864.02
2018-12-30T09:16:11.625Z,863.96
2018-12-30T09:17:10.714Z,864.05
2018-12-30T09:18:10.589Z,864.06
2018-12-30T09:19:10.581Z,864.13
2018-12-30T09:20:11.571Z,864.20
2018-12-30T09:21:10.583Z,864.24
2018-12-30T09:22:10.546Z,864.23
2018-12-30T09:23:10.594Z,864.23
2018-12-30T09:24:10.531Z,864.17
2018-12-30T09:25:10.511Z,864.17
2018-12-30T09:26:10.524Z,864.16
2018-12-30T09:27:10.506Z,864.17
2018-12-30T09:28:10.489Z,864.22
2018-12-30T09:29:10.505Z,864.21
2018-12-30T09:30:15.484Z,864.28
2018-12-30T09:31:10.493Z,864.32
2018-12-30T09:32:10.451Z,864.33
2018-12-30T09:33:10.619Z,864.36
2018-12-30T09:34:10.498Z,864.25
2018-12-30T09:35:10.460Z,864.14
2018-12-30T09:36:10.424Z,864.17
2018-12-30T09:37:10.389Z,864.27
2018-12-30T09:38:10.406Z,864.31
2018-12-30T09:39:10.395Z,864.32
2018-12-30T09:40:10.444Z,864.46
2018-12-30T09:41:10.378Z,864.48
2018-12-30T09:42:10.344Z,864.47
2018-12-30T09:43:10.333Z,864.48
2018-12-30T09:44:10.341Z,864.55
2018-12-30T09:45:10.400Z,864.47
2018-12-30T09:46:10.348Z,864.42
2018-12-30T09:47:10.406Z,864.37
2018-12-30T09:48:10.294Z,864.33
2018-12-30T09:49:10.291Z,864.32
2018-12-30T09:50:10.288Z,864.44
2018-12-30T09:51:10.310Z,864.41
2018-12-30T09:52:10.239Z,864.34
2018-12-30T09:53:10.228Z,864.24
2018-12-30T09:54:10.237Z,864.36
2018-12-30T09:55:10.287Z,864.37
2018-12-30T09:56:10.231Z,864.30
2018-12-30T09:57:10.322Z,864.34
2018-12-30T09:58:10.360Z,864.37
2018-12-30T09:59:10.222Z,864.31
2018-12-30T10:00:10.184Z,864.32
2018-12-30T10:01:10.150Z,864.35
2018-12-30T10:02:10.128Z,864.38
2018-12-30T10:03:10.173Z,864.43
2018-12-30T10:04:10.106Z,864.41
2018-12-30T10:05:10.120Z,864.45
2018-12-30T10:06:10.095Z,864.47
2018-12-30T10:07:10.094Z,864.46
2018-12-30T10:08:10.056Z,864.49
2018-12-30T10:09:10.048Z,864.43
2018-12-30T10:10:10.027Z,864.50
2018-12-30T10:11:10.070Z,864.53
2018-12-30T10:12:10.154Z,864.57
2018-12-30T10:13:09.991Z,864.60
2018-12-30T10:14:10.016Z,864.62
2018-12-30T10:15:10.301Z,864.63
2018-12-30T10:16:09.975Z,864.63
2018-12-30T10:17:10.005Z,864.64
2018-12-30T10:18:09.937Z,864.67
2018-12-30T10:19:09.931Z,864.58
2018-12-30T10:20:09.952Z,864.58
2018-12-30T10:21:09.900Z,864.62
2018-12-30T10:22:10.059Z,864.67
2018-12-30T10:23:09.943Z,864.66
2018-12-30T10:24:09.913Z,864.69
2018-12-30T10:25:11.533Z,864.72
2018-12-30T10:26:09.954Z,864.72
2018-12-30T10:27:09.853Z,864.70
2018-12-30T10:28:09.817Z,864.73
2018-12-30T10:29:09.828Z,864.69
2018-12-30T10:30:09.803Z,864.70
2018-12-30T10:31:09.830Z,864.68
2018-12-30T10:32:09.804Z,864.68
2018-12-30T10:33:09.782Z,864.72
2018-12-30T10:34:09.775Z,864.74
2018-12-30T10:35:09.745Z,864.74
2018-12-30T10:36:09.756Z,864.79
2018-12-30T10:37:09.759Z,864.79
2018-12-30T10:38:09.921Z,864.81
2018-12-30T10:39:11.731Z,864.80
2018-12-30T10:40:09.724Z,864.80
2018-12-30T10:41:09.690Z,864.85
2018-12-30T10:42:09.668Z,864.85
2018-12-30T10:43:09.710Z,864.84
2018-12-30T10:44:09.659Z,864.85
2018-12-30T10:45:09.647Z,864.86
2018-12-30T10:46:09.630Z,864.87
2018-12-30T10:47:09.630Z,864.92
2018-12-30T10:48:09.708Z,864.87
2018-12-30T10:49:09.601Z,864.83
2018-12-30T10:50:09.625Z,864.90
2018-12-30T10:51:09.586Z,864.85
2018-12-30T10:52:10.080Z,864.83
2018-12-30T10:53:09.584Z,864.88
2018-12-30T10:54:09.586Z,864.84
2018-12-30T10:55:09.524Z,864.82
2018-12-30T10:56:09.535Z,864.76
2018-12-30T10:57:09.537Z,864.80
2018-12-30T10:58:09.491Z,864.83
2018-12-30T10:59:09.480Z,864.83
2018-12-30T11:00:09.467Z,864.97
2018-12-30T11:01:09.480Z,864.94
2018-12-30T11:02:09.464Z,864.99
2018-12-30T11:03:09.475Z,865.02
2018-12-30T11:04:09.428Z,865.01
2018-12-30T11:05:09.433Z,865.00
2018-12-30T11:06:09.495Z,864.98
2018-12-30T11:07:37.896Z,864.94
2018-12-30T11:08:10.412Z,865.00
2018-12-30T11:09:09.423Z,865.05
2018-12-30T11:10:09.396Z,865.06
2018-12-30T11:11:09.351Z,865.07
2018-12-30T11:12:09.343Z,865.06
2018-12-30T11:13:09.349Z,865.07
2018-12-30T11:14:09.335Z,865.05
2018-12-30T11:15:09.348Z,865.12
2018-12-30T11:16:09.311Z,865.05
2018-12-30T11:17:09.301Z,865.09
2018-12-30T11:18:09.293Z,865.00
2018-12-30T11:19:09.284Z,865.01
2018-12-30T11:20:09.261Z,864.95
2018-12-30T11:21:09.298Z,864.96
2018-12-30T11:22:09.240Z,864.96
2018-12-30T11:23:09.254Z,864.92
2018-12-30T11:24:09.259Z,864.98
2018-12-30T11:25:09.229Z,864.99
2018-12-30T11:26:09.196Z,865.02
2018-12-30T11:27:09.248Z,865.05
2018-12-30T11:28:09.183Z,865.06
2018-12-30T11:29:09.191Z,865.07
2018-12-30T11:30:09.163Z,865.09
2018-12-30T11:31:09.134Z,865.09
2018-12-30T11:32:09.141Z,865.11
2018-12-30T11:33:09.427Z,865.14
2018-12-30T11:34:09.181Z,865.10
2018-12-30T11:35:09.097Z,865.10
2018-12-30T11:36:09.085Z,865.04
2018-12-30T11:37:09.291Z,865.07
2018-12-30T11:38:09.085Z,865.04
2018-12-30T11:39:09.131Z,865.02
2018-12-30T11:40:09.138Z,865.02
2018-12-30T11:41:09.107Z,865.07
2018-12-30T11:42:09.027Z,865.01
2018-12-30T11:43:09.032Z,865.06
2018-12-30T11:44:09.049Z,865.10
2018-12-30T11:45:09.077Z,865.08
2018-12-30T11:46:09.026Z,865.09
2018-12-30T11:47:09.024Z,865.07
2018-12-30T11:48:08.989Z,865.04
2018-12-30T11:49:09.006Z,865.05
2018-12-30T11:50:08.988Z,865.02
2018-12-30T11:51:09.574Z,865.03
2018-12-30T11:52:08.968Z,865.07
2018-12-30T11:53:08.962Z,865.10
2018-12-30T11:54:16.239Z,865.14
2018-12-30T11:55:09.961Z,865.17
2018-12-30T11:56:08.935Z,865.10
2018-12-30T11:57:08.947Z,865.08
2018-12-30T11:58:08.928Z,865.08
2018-12-30T11:59:09.125Z,865.09
2018-12-30T12:00:08.874Z,865.09
2018-12-30T12:01:08.892Z,865.12
2018-12-30T12:02:08.927Z,865.18
2018-12-30T12:03:08.817Z,865.15
2018-12-30T12:04:08.837Z,865.22
2018-12-30T12:05:08.826Z,865.29
2018-12-30T12:06:08.781Z,865.30
2018-12-30T12:07:08.814Z,865.27
2018-12-30T12:08:08.816Z,865.21
2018-12-30T12:09:08.814Z,865.14
2018-12-30T12:10:08.779Z,865.14
2018-12-30T12:11:08.863Z,865.14
2018-12-30T12:12:08.714Z,865.10
2018-12-30T12:13:08.727Z,865.13
2018-12-30T12:14:08.757Z,865.13
2018-12-30T12:15:08.724Z,865.15
2018-12-30T12:16:08.722Z,865.13
2018-12-30T12:17:08.662Z,865.15
2018-12-30T12:18:08.685Z,865.19
2018-12-30T12:19:08.725Z,865.20
2018-12-30T12:20:08.685Z,865.21
2018-12-30T12:21:08.616Z,865.22
2018-12-30T12:22:08.655Z,865.22
2018-12-30T12:23:08.646Z,865.21
2018-12-30T12:24:08.647Z,865.20
2018-12-30T12:25:08.645Z,865.25
2018-12-30T12:26:08.559Z,865.15
2018-12-30T12:27:08.570Z,865.28
2018-12-30T12:28:08.570Z,865.19